Flight Track Log - Related Links

Times and Time Zones

All times are in EDT time to prevent confusion due to time zone crossing. See the GJS3649 flight status page for this flight to view local times or setup timezone preferences in your user account.

Time Position Orientation Groundspeed Altitude Reporting Facility
EDT Latitude Longitude Course Direction KTS MPH feet Rate Location/Type
Mon 08:32:09 AM 43.1789 -89.3969 163° South 218 251 3,600  Level Chicago Center
Mon 08:33:10 AM 43.1011 -89.4142 189° South 266 306 6,700 2,852 Climbing Chicago Center
Mon 08:34:00 AM 42.8390 -89.2167 180° South  Level FlightAware Approximate
Mon 08:34:11 AM 43.0236 -89.3669 156° South 299 344 9,400  Level Chicago Center
Mon 08:35:00 AM 42.7644 -89.1891 164° South  Level FlightAware Approximate
Mon 08:35:12 AM 42.9394 -89.3214 158° South 318 366 11,000  Level Chicago Center
Mon 08:36:00 AM 42.6902 -89.1583 163° South  Level FlightAware Approximate
Mon 08:36:13 AM 42.8417 -89.2656 157° South 371 427 11,000  Level Chicago Center
Mon 08:37:00 AM 42.6148 -89.1269 163° South  Level FlightAware Approximate
Mon 08:37:14 AM 42.7450 -89.2111 158° South 377 434 11,000  Level Chicago Center
Mon 08:38:15 AM 42.6528 -89.1597 158° South 361 415 10,400 -1,082 Descending Chicago Center
Mon 08:39:16 AM 42.5733 -89.1142 157° South 318 366 8,800 -1,279 Descending Chicago Center
Mon 08:40:17 AM 42.5306 -89.0172 121° Southeast 316 364 7,800 -885 Descending Chicago Center
Mon 08:41:18 AM 42.4997 -88.9114 112° Southeast 306 352 7,000 -393 Descending Chicago Center
Mon 08:42:19 AM 42.4689 -88.8083 112° Southeast 298 343 7,000  Level Chicago Center
Mon 08:43:20 AM 42.4322 -88.6939 113° Southeast 287 330 7,000  Level Chicago Center
Mon 08:44:21 AM 42.4011 -88.5925 113° Southeast 289 333 7,000  Level Chicago Center
Mon 08:45:22 AM 42.3658 -88.4914 115° Southeast 295 339 7,000  Level Chicago Center
Mon 08:46:23 AM 42.3108 -88.4031 130° Southeast 298 343 7,000  Level Chicago Center
Mon 08:47:24 AM 42.2567 -88.3200 131° Southeast 296 341 7,000  Level Chicago Center
Mon 08:48:25 AM 42.2022 -88.2375 132° Southeast 295 339 7,000  Level Chicago Center
Mon 08:49:26 AM 42.1483 -88.1522 130° Southeast 298 343 7,000  Level Chicago Center
Mon 08:50:27 AM 42.1078 -88.0597 121° Southeast 297 342 7,000  Level Chicago Center
Mon 08:51:28 AM 42.0931 -87.9583 101° East 277 319 7,000  Level Chicago Center
Mon 08:52:29 AM 42.0903 -87.8764 93° East 226 260 7,000 -393 Level Chicago Center
Mon 08:53:30 AM 42.0894 -87.7967 91° East 214 246 6,200 -1,230 Descending Chicago Center
Mon 08:54:31 AM 42.0808 -87.7233 99° East 220 253 4,500 -1,591 Descending Chicago Center
Mon 08:55:42 AM 42.0333 -87.7667 214° Southwest 196 226 2,700 -1,237 Descending Chicago TRACON
Mon 08:56:42 AM 42.0000 -87.8333 236° Southwest 164 189 1,800 -850 Descending Chicago TRACON
Mon 08:57:42 AM 42.0000 -87.8833 270° West 147 169 1,000 -800 Descending Chicago TRACON

Login

Don't have an account? Register now (free) for customized features, flight alerts, and more!